Millinocket, Maine
Current Conditions -  °F | °C
As of 6:53 AM on Sunday 21 Dec 2014 (Local Time) from KMLT Reporting Station
Overcast Overcast  
Wind Chill: 21°   Ceiling: 1600
Heat Index: 21°   Visibility: 10mi
Dew Point: 18°   Wind: 3mph
Humidity: 88%   Direction: 70°ENE
Pressure: 30.36"   Gusts: NA
Location:  45.66°N, 68.71°W
Report Text: KMLT 211153Z AUTO 07003KT 10SM BKN016 OVC028 M06/M08 A3036 RMK AO2 SLP293 T10611078 11056 21061 55003
Loading
Personal Weather Stations






























Interactive Weather Map New forecast layout! Learn more

10-Day Weather Forecast

Advertisements
Track Severe Weather on mobile